sensor_id;sensor_type;location;lat;lon;timestamp;P1;durP1;ratioP1;P2;durP2;ratioP2
5678;SDS011;2862;52.560;13.566;2023-04-06T00:00:23;20.00;;;4.10;;
5678;SDS011;2862;52.560;13.566;2023-04-06T00:10:27;22.60;;;5.00;;
5678;SDS011;2862;52.560;13.566;2023-04-06T00:20:31;20.37;;;5.10;;
5678;SDS011;2862;52.560;13.566;2023-04-06T00:30:35;19.10;;;4.63;;
5678;SDS011;2862;52.560;13.566;2023-04-06T00:40:38;23.57;;;6.10;;
5678;SDS011;2862;52.560;13.566;2023-04-06T00:50:43;21.33;;;5.47;;
5678;SDS011;2862;52.560;13.566;2023-04-06T01:00:46;22.97;;;5.23;;
5678;SDS011;2862;52.560;13.566;2023-04-06T01:10:54;22.67;;;6.67;;
5678;SDS011;2862;52.560;13.566;2023-04-06T01:21:01;21.73;;;5.87;;
5678;SDS011;2862;52.560;13.566;2023-04-06T01:31:05;23.93;;;6.27;;
5678;SDS011;2862;52.560;13.566;2023-04-06T01:41:16;22.20;;;5.90;;
5678;SDS011;2862;52.560;13.566;2023-04-06T01:51:24;22.60;;;6.27;;
5678;SDS011;2862;52.560;13.566;2023-04-06T02:01:32;19.80;;;4.83;;
5678;SDS011;2862;52.560;13.566;2023-04-06T02:11:38;22.00;;;4.47;;
5678;SDS011;2862;52.560;13.566;2023-04-06T02:21:41;20.07;;;4.73;;
5678;SDS011;2862;52.560;13.566;2023-04-06T02:31:46;20.17;;;4.37;;
5678;SDS011;2862;52.560;13.566;2023-04-06T02:41:50;21.80;;;5.17;;
5678;SDS011;2862;52.560;13.566;2023-04-06T02:51:59;23.37;;;5.17;;
5678;SDS011;2862;52.560;13.566;2023-04-06T03:02:06;20.00;;;4.70;;
5678;SDS011;2862;52.560;13.566;2023-04-06T03:12:11;25.03;;;5.40;;
5678;SDS011;2862;52.560;13.566;2023-04-06T03:22:33;26.70;;;5.40;;
5678;SDS011;2862;52.560;13.566;2023-04-06T03:32:38;25.90;;;6.27;;
5678;SDS011;2862;52.560;13.566;2023-04-06T03:42:41;19.90;;;4.87;;
5678;SDS011;2862;52.560;13.566;2023-04-06T03:52:49;21.23;;;4.90;;
5678;SDS011;2862;52.560;13.566;2023-04-06T04:02:53;21.50;;;5.63;;
5678;SDS011;2862;52.560;13.566;2023-04-06T04:12:58;20.07;;;5.07;;
5678;SDS011;2862;52.560;13.566;2023-04-06T04:23:02;28.00;;;6.33;;
5678;SDS011;2862;52.560;13.566;2023-04-06T04:33:08;28.97;;;6.67;;
5678;SDS011;2862;52.560;13.566;2023-04-06T04:43:12;19.73;;;4.97;;
5678;SDS011;2862;52.560;13.566;2023-04-06T04:53:16;21.87;;;6.07;;
5678;SDS011;2862;52.560;13.566;2023-04-06T05:03:21;20.43;;;5.57;;
5678;SDS011;2862;52.560;13.566;2023-04-06T05:13:37;24.53;;;7.07;;
5678;SDS011;2862;52.560;13.566;2023-04-06T05:23:46;21.53;;;4.87;;
5678;SDS011;2862;52.560;13.566;2023-04-06T05:33:51;20.23;;;4.43;;
5678;SDS011;2862;52.560;13.566;2023-04-06T05:44:07;24.93;;;4.90;;
5678;SDS011;2862;52.560;13.566;2023-04-06T05:54:13;19.37;;;4.60;;
5678;SDS011;2862;52.560;13.566;2023-04-06T06:04:16;24.13;;;4.60;;
5678;SDS011;2862;52.560;13.566;2023-04-06T06:14:23;25.93;;;4.77;;
5678;SDS011;2862;52.560;13.566;2023-04-06T06:24:26;18.43;;;3.83;;
5678;SDS011;2862;52.560;13.566;2023-04-06T06:34:32;23.40;;;4.20;;
5678;SDS011;2862;52.560;13.566;2023-04-06T06:44:38;20.30;;;3.30;;
5678;SDS011;2862;52.560;13.566;2023-04-06T06:54:42;21.27;;;4.67;;
5678;SDS011;2862;52.560;13.566;2023-04-06T07:04:47;19.60;;;4.07;;
5678;SDS011;2862;52.560;13.566;2023-04-06T07:14:52;18.10;;;3.10;;
5678;SDS011;2862;52.560;13.566;2023-04-06T07:24:55;23.33;;;2.93;;
5678;SDS011;2862;52.560;13.566;2023-04-06T07:35:00;23.80;;;4.70;;
5678;SDS011;2862;52.560;13.566;2023-04-06T07:45:04;23.10;;;4.17;;
5678;SDS011;2862;52.560;13.566;2023-04-06T07:55:09;19.40;;;3.50;;
5678;SDS011;2862;52.560;13.566;2023-04-06T08:05:12;22.67;;;3.70;;
5678;SDS011;2862;52.560;13.566;2023-04-06T08:15:16;18.77;;;2.27;;
5678;SDS011;2862;52.560;13.566;2023-04-06T08:25:20;20.97;;;3.60;;
5678;SDS011;2862;52.560;13.566;2023-04-06T08:35:24;16.33;;;1.50;;
5678;SDS011;2862;52.560;13.566;2023-04-06T08:45:28;17.20;;;1.83;;
5678;SDS011;2862;52.560;13.566;2023-04-06T08:55:33;16.43;;;1.17;;
5678;SDS011;2862;52.560;13.566;2023-04-06T09:05:36;15.80;;;0.90;;
5678;SDS011;2862;52.560;13.566;2023-04-06T09:15:59;17.13;;;1.03;;
5678;SDS011;2862;52.560;13.566;2023-04-06T09:26:04;13.80;;;0.50;;
5678;SDS011;2862;52.560;13.566;2023-04-06T09:36:09;16.30;;;1.23;;
5678;SDS011;2862;52.560;13.566;2023-04-06T09:46:12;18.70;;;1.40;;
5678;SDS011;2862;52.560;13.566;2023-04-06T09:56:20;18.33;;;0.93;;
5678;SDS011;2862;52.560;13.566;2023-04-06T10:06:28;14.37;;;0.60;;
5678;SDS011;2862;52.560;13.566;2023-04-06T10:16:37;15.53;;;1.10;;
5678;SDS011;2862;52.560;13.566;2023-04-06T10:26:41;14.33;;;0.53;;
5678;SDS011;2862;52.560;13.566;2023-04-06T10:36:46;16.00;;;0.60;;
5678;SDS011;2862;52.560;13.566;2023-04-06T10:46:52;14.20;;;0.40;;
5678;SDS011;2862;52.560;13.566;2023-04-06T10:56:58;16.53;;;0.70;;
5678;SDS011;2862;52.560;13.566;2023-04-06T11:07:02;16.40;;;0.60;;
5678;SDS011;2862;52.560;13.566;2023-04-06T11:17:06;14.80;;;0.60;;
5678;SDS011;2862;52.560;13.566;2023-04-06T11:27:09;18.83;;;1.53;;
5678;SDS011;2862;52.560;13.566;2023-04-06T11:37:13;16.13;;;0.60;;
5678;SDS011;2862;52.560;13.566;2023-04-06T11:47:17;15.03;;;0.50;;
5678;SDS011;2862;52.560;13.566;2023-04-06T11:57:21;14.77;;;0.80;;
5678;SDS011;2862;52.560;13.566;2023-04-06T12:07:26;15.03;;;0.80;;
5678;SDS011;2862;52.560;13.566;2023-04-06T12:17:31;15.67;;;1.20;;
5678;SDS011;2862;52.560;13.566;2023-04-06T12:27:35;15.87;;;0.80;;
5678;SDS011;2862;52.560;13.566;2023-04-06T12:37:39;14.77;;;0.67;;
5678;SDS011;2862;52.560;13.566;2023-04-06T12:47:42;15.00;;;0.70;;
5678;SDS011;2862;52.560;13.566;2023-04-06T12:57:47;14.50;;;0.47;;
5678;SDS011;2862;52.560;13.566;2023-04-06T13:07:51;17.37;;;0.50;;
5678;SDS011;2862;52.560;13.566;2023-04-06T13:17:56;16.53;;;1.00;;
5678;SDS011;2862;52.560;13.566;2023-04-06T13:27:59;13.80;;;0.60;;
5678;SDS011;2862;52.560;13.566;2023-04-06T13:38:04;15.13;;;0.70;;
5678;SDS011;2862;52.560;13.566;2023-04-06T13:48:07;14.43;;;0.60;;
5678;SDS011;2862;52.560;13.566;2023-04-06T13:58:12;16.33;;;0.67;;
5678;SDS011;2862;52.560;13.566;2023-04-06T14:08:15;16.60;;;0.87;;
5678;SDS011;2862;52.560;13.566;2023-04-06T14:18:19;14.50;;;0.53;;
5678;SDS011;2862;52.560;13.566;2023-04-06T14:28:24;14.20;;;0.80;;
5678;SDS011;2862;52.560;13.566;2023-04-06T14:38:30;17.03;;;1.23;;
5678;SDS011;2862;52.560;13.566;2023-04-06T14:48:34;14.10;;;0.80;;
5678;SDS011;2862;52.560;13.566;2023-04-06T14:58:38;16.60;;;0.67;;
5678;SDS011;2862;52.560;13.566;2023-04-06T15:08:42;15.83;;;0.63;;
5678;SDS011;2862;52.560;13.566;2023-04-06T15:18:47;15.80;;;0.70;;
5678;SDS011;2862;52.560;13.566;2023-04-06T15:28:50;17.43;;;1.37;;
5678;SDS011;2862;52.560;13.566;2023-04-06T15:38:55;14.70;;;0.80;;
5678;SDS011;2862;52.560;13.566;2023-04-06T15:48:58;14.13;;;0.80;;
5678;SDS011;2862;52.560;13.566;2023-04-06T15:59:03;14.30;;;0.67;;
5678;SDS011;2862;52.560;13.566;2023-04-06T16:09:05;16.57;;;1.27;;
5678;SDS011;2862;52.560;13.566;2023-04-06T16:19:10;12.83;;;0.50;;
5678;SDS011;2862;52.560;13.566;2023-04-06T16:29:13;16.20;;;0.90;;
5678;SDS011;2862;52.560;13.566;2023-04-06T16:39:18;15.17;;;0.50;;
5678;SDS011;2862;52.560;13.566;2023-04-06T16:49:22;14.00;;;0.53;;
5678;SDS011;2862;52.560;13.566;2023-04-06T16:59:26;14.93;;;0.90;;
5678;SDS011;2862;52.560;13.566;2023-04-06T17:09:29;15.27;;;0.60;;
5678;SDS011;2862;52.560;13.566;2023-04-06T17:19:39;15.70;;;0.60;;
5678;SDS011;2862;52.560;13.566;2023-04-06T17:29:42;16.10;;;0.87;;
5678;SDS011;2862;52.560;13.566;2023-04-06T17:39:46;14.30;;;1.33;;
5678;SDS011;2862;52.560;13.566;2023-04-06T17:49:49;16.10;;;1.73;;
5678;SDS011;2862;52.560;13.566;2023-04-06T17:59:54;17.10;;;2.83;;
5678;SDS011;2862;52.560;13.566;2023-04-06T18:09:58;18.60;;;2.80;;
5678;SDS011;2862;52.560;13.566;2023-04-06T18:20:02;19.47;;;2.57;;
5678;SDS011;2862;52.560;13.566;2023-04-06T18:30:06;19.63;;;3.53;;
5678;SDS011;2862;52.560;13.566;2023-04-06T18:50:37;18.40;;;2.70;;
5678;SDS011;2862;52.560;13.566;2023-04-06T19:00:41;22.00;;;4.00;;
5678;SDS011;2862;52.560;13.566;2023-04-06T19:10:44;18.20;;;3.37;;
5678;SDS011;2862;52.560;13.566;2023-04-06T19:20:51;21.40;;;4.53;;
5678;SDS011;2862;52.560;13.566;2023-04-06T19:30:55;19.37;;;4.27;;
5678;SDS011;2862;52.560;13.566;2023-04-06T19:40:59;20.60;;;4.17;;
5678;SDS011;2862;52.560;13.566;2023-04-06T19:51:03;22.10;;;5.87;;
5678;SDS011;2862;52.560;13.566;2023-04-06T20:01:07;20.30;;;4.30;;
5678;SDS011;2862;52.560;13.566;2023-04-06T20:11:10;21.53;;;4.90;;
5678;SDS011;2862;52.560;13.566;2023-04-06T20:21:15;24.73;;;5.20;;
5678;SDS011;2862;52.560;13.566;2023-04-06T20:31:18;25.73;;;5.70;;
5678;SDS011;2862;52.560;13.566;2023-04-06T20:41:22;20.80;;;5.23;;
5678;SDS011;2862;52.560;13.566;2023-04-06T20:51:25;19.13;;;3.67;;
5678;SDS011;2862;52.560;13.566;2023-04-06T21:01:30;22.40;;;4.13;;
5678;SDS011;2862;52.560;13.566;2023-04-06T21:11:33;25.70;;;4.67;;
5678;SDS011;2862;52.560;13.566;2023-04-06T21:21:38;22.00;;;5.20;;
5678;SDS011;2862;52.560;13.566;2023-04-06T21:31:42;26.30;;;5.73;;
5678;SDS011;2862;52.560;13.566;2023-04-06T21:41:46;25.37;;;5.20;;
5678;SDS011;2862;52.560;13.566;2023-04-06T21:51:49;22.70;;;4.47;;
5678;SDS011;2862;52.560;13.566;2023-04-06T22:01:53;22.37;;;4.40;;
5678;SDS011;2862;52.560;13.566;2023-04-06T22:11:57;22.67;;;4.20;;
5678;SDS011;2862;52.560;13.566;2023-04-06T22:22:01;21.73;;;4.83;;
5678;SDS011;2862;52.560;13.566;2023-04-06T22:32:05;18.70;;;3.60;;
5678;SDS011;2862;52.560;13.566;2023-04-06T22:42:09;23.70;;;4.60;;
5678;SDS011;2862;52.560;13.566;2023-04-06T22:52:12;23.17;;;5.10;;
5678;SDS011;2862;52.560;13.566;2023-04-06T23:02:17;23.03;;;3.93;;
5678;SDS011;2862;52.560;13.566;2023-04-06T23:12:21;18.70;;;4.47;;
5678;SDS011;2862;52.560;13.566;2023-04-06T23:22:26;21.97;;;4.73;;
5678;SDS011;2862;52.560;13.566;2023-04-06T23:32:29;22.40;;;5.13;;
5678;SDS011;2862;52.560;13.566;2023-04-06T23:42:34;19.10;;;3.97;;
5678;SDS011;2862;52.560;13.566;2023-04-06T23:52:37;21.53;;;5.20;;
